sensor_id;sensor_type;location;lat;lon;timestamp;P1;durP1;ratioP1;P2;durP2;ratioP2
60851;SDS011;48553;50.766;2.900;2023-08-17T00:01:38;8.82;;;5.80;;
60851;SDS011;48553;50.766;2.900;2023-08-17T00:04:39;8.68;;;5.88;;
60851;SDS011;48553;50.766;2.900;2023-08-17T00:07:40;7.97;;;5.40;;
60851;SDS011;48553;50.766;2.900;2023-08-17T00:10:40;8.52;;;5.50;;
60851;SDS011;48553;50.766;2.900;2023-08-17T00:13:41;9.18;;;5.63;;
60851;SDS011;48553;50.766;2.900;2023-08-17T00:16:41;8.95;;;5.35;;
60851;SDS011;48553;50.766;2.900;2023-08-17T00:19:41;9.98;;;5.43;;
60851;SDS011;48553;50.766;2.900;2023-08-17T00:22:42;9.02;;;5.88;;
60851;SDS011;48553;50.766;2.900;2023-08-17T00:25:42;10.27;;;5.47;;
60851;SDS011;48553;50.766;2.900;2023-08-17T00:28:43;9.30;;;5.80;;
60851;SDS011;48553;50.766;2.900;2023-08-17T00:31:44;10.05;;;5.95;;
60851;SDS011;48553;50.766;2.900;2023-08-17T00:34:44;8.90;;;5.75;;
60851;SDS011;48553;50.766;2.900;2023-08-17T00:37:45;9.77;;;5.65;;
60851;SDS011;48553;50.766;2.900;2023-08-17T00:40:45;9.07;;;5.63;;
60851;SDS011;48553;50.766;2.900;2023-08-17T00:43:46;8.57;;;5.50;;
60851;SDS011;48553;50.766;2.900;2023-08-17T00:46:46;10.57;;;5.80;;
60851;SDS011;48553;50.766;2.900;2023-08-17T00:49:47;9.98;;;5.72;;
60851;SDS011;48553;50.766;2.900;2023-08-17T00:52:47;11.57;;;5.93;;
60851;SDS011;48553;50.766;2.900;2023-08-17T00:55:48;10.75;;;6.00;;
60851;SDS011;48553;50.766;2.900;2023-08-17T00:58:50;9.35;;;5.53;;
60851;SDS011;48553;50.766;2.900;2023-08-17T01:01:51;8.32;;;5.45;;
60851;SDS011;48553;50.766;2.900;2023-08-17T01:04:52;11.45;;;5.70;;
60851;SDS011;48553;50.766;2.900;2023-08-17T01:07:53;9.18;;;5.60;;
60851;SDS011;48553;50.766;2.900;2023-08-17T01:11:02;10.85;;;5.60;;
60851;SDS011;48553;50.766;2.900;2023-08-17T01:14:21;8.82;;;5.93;;
60851;SDS011;48553;50.766;2.900;2023-08-17T01:20:54;9.95;;;6.05;;
60851;SDS011;48553;50.766;2.900;2023-08-17T01:23:57;8.93;;;5.72;;
60851;SDS011;48553;50.766;2.900;2023-08-17T01:26:59;9.27;;;6.15;;
60851;SDS011;48553;50.766;2.900;2023-08-17T01:29:59;10.93;;;6.13;;
60851;SDS011;48553;50.766;2.900;2023-08-17T01:39:41;10.65;;;6.90;;
60851;SDS011;48553;50.766;2.900;2023-08-17T01:42:45;9.60;;;6.78;;
60851;SDS011;48553;50.766;2.900;2023-08-17T01:45:46;11.15;;;6.55;;
60851;SDS011;48553;50.766;2.900;2023-08-17T01:48:46;11.35;;;6.45;;
60851;SDS011;48553;50.766;2.900;2023-08-17T01:51:47;11.18;;;6.25;;
60851;SDS011;48553;50.766;2.900;2023-08-17T01:54:47;7.90;;;5.97;;
60851;SDS011;48553;50.766;2.900;2023-08-17T01:57:48;8.30;;;6.00;;
60851;SDS011;48553;50.766;2.900;2023-08-17T02:00:48;9.13;;;6.18;;
60851;SDS011;48553;50.766;2.900;2023-08-17T02:03:49;10.85;;;6.43;;
60851;SDS011;48553;50.766;2.900;2023-08-17T02:06:49;10.85;;;6.35;;
60851;SDS011;48553;50.766;2.900;2023-08-17T02:09:50;8.35;;;5.70;;
60851;SDS011;48553;50.766;2.900;2023-08-17T02:12:50;10.90;;;6.30;;
60851;SDS011;48553;50.766;2.900;2023-08-17T02:15:51;9.60;;;6.10;;
60851;SDS011;48553;50.766;2.900;2023-08-17T02:18:51;8.70;;;6.28;;
60851;SDS011;48553;50.766;2.900;2023-08-17T02:21:51;9.45;;;6.30;;
60851;SDS011;48553;50.766;2.900;2023-08-17T02:24:52;9.93;;;6.35;;
60851;SDS011;48553;50.766;2.900;2023-08-17T02:27:52;8.90;;;6.10;;
60851;SDS011;48553;50.766;2.900;2023-08-17T02:30:56;9.13;;;5.93;;
60851;SDS011;48553;50.766;2.900;2023-08-17T02:33:58;9.13;;;6.20;;
60851;SDS011;48553;50.766;2.900;2023-08-17T02:37:00;8.98;;;5.82;;
60851;SDS011;48553;50.766;2.900;2023-08-17T02:40:01;8.30;;;5.85;;
60851;SDS011;48553;50.766;2.900;2023-08-17T02:43:02;9.32;;;6.00;;
60851;SDS011;48553;50.766;2.900;2023-08-17T02:46:03;7.75;;;5.75;;
60851;SDS011;48553;50.766;2.900;2023-08-17T02:49:07;8.57;;;5.40;;
60851;SDS011;48553;50.766;2.900;2023-08-17T02:52:07;10.13;;;5.90;;
60851;SDS011;48553;50.766;2.900;2023-08-17T02:55:07;7.97;;;5.47;;
60851;SDS011;48553;50.766;2.900;2023-08-17T02:58:08;8.05;;;5.38;;
60851;SDS011;48553;50.766;2.900;2023-08-17T03:01:09;8.63;;;5.22;;
60851;SDS011;48553;50.766;2.900;2023-08-17T03:04:10;8.65;;;5.45;;
60851;SDS011;48553;50.766;2.900;2023-08-17T03:07:10;7.47;;;4.78;;
60851;SDS011;48553;50.766;2.900;2023-08-17T03:10:10;7.80;;;4.95;;
60851;SDS011;48553;50.766;2.900;2023-08-17T03:13:11;8.20;;;5.28;;
60851;SDS011;48553;50.766;2.900;2023-08-17T03:16:11;7.82;;;5.00;;
60851;SDS011;48553;50.766;2.900;2023-08-17T03:19:12;9.75;;;5.03;;
60851;SDS011;48553;50.766;2.900;2023-08-17T03:22:12;7.35;;;5.20;;
60851;SDS011;48553;50.766;2.900;2023-08-17T03:25:13;8.40;;;5.75;;
60851;SDS011;48553;50.766;2.900;2023-08-17T03:28:13;8.05;;;5.35;;
60851;SDS011;48553;50.766;2.900;2023-08-17T03:31:13;8.90;;;5.13;;
60851;SDS011;48553;50.766;2.900;2023-08-17T03:34:14;9.55;;;5.63;;
60851;SDS011;48553;50.766;2.900;2023-08-17T03:37:14;8.77;;;5.57;;
60851;SDS011;48553;50.766;2.900;2023-08-17T03:40:14;8.43;;;5.30;;
60851;SDS011;48553;50.766;2.900;2023-08-17T03:43:15;8.98;;;5.10;;
60851;SDS011;48553;50.766;2.900;2023-08-17T03:46:15;7.55;;;4.80;;
60851;SDS011;48553;50.766;2.900;2023-08-17T03:49:16;8.10;;;5.15;;
60851;SDS011;48553;50.766;2.900;2023-08-17T03:52:16;8.73;;;4.57;;
60851;SDS011;48553;50.766;2.900;2023-08-17T03:55:17;7.70;;;4.68;;
60851;SDS011;48553;50.766;2.900;2023-08-17T03:58:17;8.40;;;4.10;;
60851;SDS011;48553;50.766;2.900;2023-08-17T04:01:18;6.97;;;4.18;;
60851;SDS011;48553;50.766;2.900;2023-08-17T04:04:19;7.95;;;4.28;;
60851;SDS011;48553;50.766;2.900;2023-08-17T04:07:22;6.15;;;4.38;;
60851;SDS011;48553;50.766;2.900;2023-08-17T04:10:23;7.22;;;3.97;;
60851;SDS011;48553;50.766;2.900;2023-08-17T04:13:23;6.85;;;4.30;;
60851;SDS011;48553;50.766;2.900;2023-08-17T04:16:24;7.68;;;4.57;;
60851;SDS011;48553;50.766;2.900;2023-08-17T04:19:24;6.05;;;4.15;;
60851;SDS011;48553;50.766;2.900;2023-08-17T04:22:24;5.50;;;3.60;;
60851;SDS011;48553;50.766;2.900;2023-08-17T04:25:25;11.20;;;4.47;;
60851;SDS011;48553;50.766;2.900;2023-08-17T04:28:25;7.40;;;4.40;;
60851;SDS011;48553;50.766;2.900;2023-08-17T04:31:26;8.05;;;4.20;;
60851;SDS011;48553;50.766;2.900;2023-08-17T04:34:27;9.43;;;4.18;;
60851;SDS011;48553;50.766;2.900;2023-08-17T04:37:27;6.85;;;3.75;;
60851;SDS011;48553;50.766;2.900;2023-08-17T04:40:27;7.28;;;4.13;;
60851;SDS011;48553;50.766;2.900;2023-08-17T04:43:28;6.88;;;3.80;;
60851;SDS011;48553;50.766;2.900;2023-08-17T04:46:28;5.70;;;3.78;;
60851;SDS011;48553;50.766;2.900;2023-08-17T04:49:28;7.50;;;3.83;;
60851;SDS011;48553;50.766;2.900;2023-08-17T04:52:29;6.30;;;3.95;;
60851;SDS011;48553;50.766;2.900;2023-08-17T04:55:29;5.40;;;3.60;;
60851;SDS011;48553;50.766;2.900;2023-08-17T04:58:32;8.02;;;4.07;;
60851;SDS011;48553;50.766;2.900;2023-08-17T05:01:32;8.07;;;4.15;;
60851;SDS011;48553;50.766;2.900;2023-08-17T05:04:32;5.38;;;3.58;;
60851;SDS011;48553;50.766;2.900;2023-08-17T05:07:34;7.70;;;4.05;;
60851;SDS011;48553;50.766;2.900;2023-08-17T05:10:34;8.07;;;3.92;;
60851;SDS011;48553;50.766;2.900;2023-08-17T05:13:35;6.20;;;3.85;;
60851;SDS011;48553;50.766;2.900;2023-08-17T05:16:35;6.22;;;3.67;;
60851;SDS011;48553;50.766;2.900;2023-08-17T05:19:36;6.85;;;3.67;;
60851;SDS011;48553;50.766;2.900;2023-08-17T05:22:38;5.85;;;3.70;;
60851;SDS011;48553;50.766;2.900;2023-08-17T05:25:38;6.93;;;3.78;;
60851;SDS011;48553;50.766;2.900;2023-08-17T05:28:38;6.85;;;3.72;;
60851;SDS011;48553;50.766;2.900;2023-08-17T05:31:39;7.55;;;3.60;;
60851;SDS011;48553;50.766;2.900;2023-08-17T05:34:39;5.97;;;3.28;;
60851;SDS011;48553;50.766;2.900;2023-08-17T05:37:40;6.30;;;3.60;;
60851;SDS011;48553;50.766;2.900;2023-08-17T05:40:40;5.75;;;3.47;;
60851;SDS011;48553;50.766;2.900;2023-08-17T05:43:40;7.53;;;3.53;;
60851;SDS011;48553;50.766;2.900;2023-08-17T05:46:41;7.35;;;2.90;;
60851;SDS011;48553;50.766;2.900;2023-08-17T05:49:41;5.35;;;3.30;;
60851;SDS011;48553;50.766;2.900;2023-08-17T05:52:42;5.03;;;3.28;;
60851;SDS011;48553;50.766;2.900;2023-08-17T05:55:42;7.20;;;3.58;;
60851;SDS011;48553;50.766;2.900;2023-08-17T05:58:42;7.70;;;3.65;;
60851;SDS011;48553;50.766;2.900;2023-08-17T06:01:43;6.28;;;3.50;;
60851;SDS011;48553;50.766;2.900;2023-08-17T06:04:43;5.05;;;3.30;;
60851;SDS011;48553;50.766;2.900;2023-08-17T06:07:44;8.45;;;3.97;;
60851;SDS011;48553;50.766;2.900;2023-08-17T06:10:44;6.63;;;3.70;;
60851;SDS011;48553;50.766;2.900;2023-08-17T06:13:44;7.85;;;3.60;;
60851;SDS011;48553;50.766;2.900;2023-08-17T06:16:45;5.63;;;3.55;;
60851;SDS011;48553;50.766;2.900;2023-08-17T06:19:45;6.50;;;3.30;;
60851;SDS011;48553;50.766;2.900;2023-08-17T06:22:47;7.03;;;3.50;;
60851;SDS011;48553;50.766;2.900;2023-08-17T06:25:49;6.13;;;3.20;;
60851;SDS011;48553;50.766;2.900;2023-08-17T06:28:49;5.63;;;3.05;;
60851;SDS011;48553;50.766;2.900;2023-08-17T06:31:50;6.43;;;3.30;;
60851;SDS011;48553;50.766;2.900;2023-08-17T06:34:51;7.03;;;3.33;;
60851;SDS011;48553;50.766;2.900;2023-08-17T06:37:51;6.78;;;3.35;;
60851;SDS011;48553;50.766;2.900;2023-08-17T06:40:54;5.68;;;3.30;;
60851;SDS011;48553;50.766;2.900;2023-08-17T06:43:54;5.78;;;3.15;;
60851;SDS011;48553;50.766;2.900;2023-08-17T06:46:54;6.15;;;3.17;;
60851;SDS011;48553;50.766;2.900;2023-08-17T06:49:55;6.93;;;3.40;;
60851;SDS011;48553;50.766;2.900;2023-08-17T06:52:57;6.35;;;3.25;;
60851;SDS011;48553;50.766;2.900;2023-08-17T06:55:58;5.70;;;3.10;;
60851;SDS011;48553;50.766;2.900;2023-08-17T06:58:58;6.72;;;3.10;;
60851;SDS011;48553;50.766;2.900;2023-08-17T07:01:59;6.00;;;2.80;;
60851;SDS011;48553;50.766;2.900;2023-08-17T07:05:00;5.50;;;2.97;;
60851;SDS011;48553;50.766;2.900;2023-08-17T07:08:01;5.38;;;2.88;;
60851;SDS011;48553;50.766;2.900;2023-08-17T07:11:02;5.00;;;2.75;;
60851;SDS011;48553;50.766;2.900;2023-08-17T07:14:04;4.95;;;2.42;;
60851;SDS011;48553;50.766;2.900;2023-08-17T07:17:06;7.65;;;3.03;;
60851;SDS011;48553;50.766;2.900;2023-08-17T07:20:06;4.85;;;3.15;;
60851;SDS011;48553;50.766;2.900;2023-08-17T07:23:07;5.70;;;3.03;;
60851;SDS011;48553;50.766;2.900;2023-08-17T07:26:07;8.88;;;4.40;;
60851;SDS011;48553;50.766;2.900;2023-08-17T07:29:08;9.73;;;4.65;;
60851;SDS011;48553;50.766;2.900;2023-08-17T07:32:10;14.35;;;4.97;;
60851;SDS011;48553;50.766;2.900;2023-08-17T07:35:10;8.77;;;4.80;;
60851;SDS011;48553;50.766;2.900;2023-08-17T07:38:10;9.40;;;4.85;;
60851;SDS011;48553;50.766;2.900;2023-08-17T07:41:11;9.52;;;4.88;;
60851;SDS011;48553;50.766;2.900;2023-08-17T07:44:11;8.73;;;4.88;;
60851;SDS011;48553;50.766;2.900;2023-08-17T07:47:11;8.65;;;4.95;;
60851;SDS011;48553;50.766;2.900;2023-08-17T07:50:12;8.20;;;4.70;;
60851;SDS011;48553;50.766;2.900;2023-08-17T07:53:12;8.88;;;4.65;;
60851;SDS011;48553;50.766;2.900;2023-08-17T07:56:13;8.57;;;4.80;;
60851;SDS011;48553;50.766;2.900;2023-08-17T07:59:13;9.75;;;4.65;;
60851;SDS011;48553;50.766;2.900;2023-08-17T08:02:14;7.30;;;4.20;;
60851;SDS011;48553;50.766;2.900;2023-08-17T08:05:14;9.05;;;4.85;;
60851;SDS011;48553;50.766;2.900;2023-08-17T08:08:15;7.60;;;4.97;;
60851;SDS011;48553;50.766;2.900;2023-08-17T08:11:17;9.57;;;5.13;;
60851;SDS011;48553;50.766;2.900;2023-08-17T08:14:17;23.83;;;5.20;;
60851;SDS011;48553;50.766;2.900;2023-08-17T08:17:18;9.40;;;4.75;;
60851;SDS011;48553;50.766;2.900;2023-08-17T08:20:20;8.18;;;4.47;;
60851;SDS011;48553;50.766;2.900;2023-08-17T08:23:20;9.88;;;4.55;;
60851;SDS011;48553;50.766;2.900;2023-08-17T08:26:20;7.93;;;4.68;;
60851;SDS011;48553;50.766;2.900;2023-08-17T08:29:21;8.45;;;5.10;;
60851;SDS011;48553;50.766;2.900;2023-08-17T08:32:21;10.75;;;5.10;;
60851;SDS011;48553;50.766;2.900;2023-08-17T08:35:22;11.38;;;4.82;;
60851;SDS011;48553;50.766;2.900;2023-08-17T08:38:24;8.63;;;4.40;;
60851;SDS011;48553;50.766;2.900;2023-08-17T08:41:24;10.13;;;4.60;;
60851;SDS011;48553;50.766;2.900;2023-08-17T08:44:27;13.10;;;4.65;;
60851;SDS011;48553;50.766;2.900;2023-08-17T08:47:27;8.40;;;4.50;;
60851;SDS011;48553;50.766;2.900;2023-08-17T08:50:31;7.93;;;4.47;;
60851;SDS011;48553;50.766;2.900;2023-08-17T08:53:34;10.25;;;4.75;;
60851;SDS011;48553;50.766;2.900;2023-08-17T08:56:38;7.70;;;4.85;;
60851;SDS011;48553;50.766;2.900;2023-08-17T08:59:42;9.70;;;5.10;;
60851;SDS011;48553;50.766;2.900;2023-08-17T09:02:46;8.75;;;5.25;;
60851;SDS011;48553;50.766;2.900;2023-08-17T09:05:47;7.75;;;4.85;;
60851;SDS011;48553;50.766;2.900;2023-08-17T09:08:49;8.80;;;4.93;;
60851;SDS011;48553;50.766;2.900;2023-08-17T09:11:51;7.90;;;4.80;;
60851;SDS011;48553;50.766;2.900;2023-08-17T09:14:51;8.48;;;5.28;;
60851;SDS011;48553;50.766;2.900;2023-08-17T09:17:52;7.40;;;5.00;;
60851;SDS011;48553;50.766;2.900;2023-08-17T09:20:52;10.57;;;5.57;;
60851;SDS011;48553;50.766;2.900;2023-08-17T09:23:54;9.25;;;5.50;;
60851;SDS011;48553;50.766;2.900;2023-08-17T09:26:56;10.50;;;5.47;;
60851;SDS011;48553;50.766;2.900;2023-08-17T09:30:05;9.82;;;5.40;;
60851;SDS011;48553;50.766;2.900;2023-08-17T09:33:07;11.63;;;5.53;;
60851;SDS011;48553;50.766;2.900;2023-08-17T09:36:09;11.23;;;6.22;;
60851;SDS011;48553;50.766;2.900;2023-08-17T09:39:12;12.25;;;6.30;;
60851;SDS011;48553;50.766;2.900;2023-08-17T09:42:12;9.18;;;5.65;;
60851;SDS011;48553;50.766;2.900;2023-08-17T09:45:17;9.95;;;5.63;;
60851;SDS011;48553;50.766;2.900;2023-08-17T09:48:17;12.45;;;5.90;;
60851;SDS011;48553;50.766;2.900;2023-08-17T09:51:19;10.52;;;6.00;;
60851;SDS011;48553;50.766;2.900;2023-08-17T09:54:20;12.18;;;5.93;;
60851;SDS011;48553;50.766;2.900;2023-08-17T09:57:23;10.02;;;5.68;;
60851;SDS011;48553;50.766;2.900;2023-08-17T10:00:24;9.50;;;5.95;;
60851;SDS011;48553;50.766;2.900;2023-08-17T10:03:25;10.32;;;5.70;;
60851;SDS011;48553;50.766;2.900;2023-08-17T10:06:27;10.30;;;5.10;;
60851;SDS011;48553;50.766;2.900;2023-08-17T10:09:40;9.23;;;5.82;;
60851;SDS011;48553;50.766;2.900;2023-08-17T10:12:44;13.68;;;6.70;;
60851;SDS011;48553;50.766;2.900;2023-08-17T10:15:51;13.40;;;6.03;;
60851;SDS011;48553;50.766;2.900;2023-08-17T10:22:20;10.88;;;5.97;;
60851;SDS011;48553;50.766;2.900;2023-08-17T10:25:29;12.48;;;6.57;;
60851;SDS011;48553;50.766;2.900;2023-08-17T10:28:33;13.05;;;7.10;;
60851;SDS011;48553;50.766;2.900;2023-08-17T10:31:34;12.10;;;6.93;;
60851;SDS011;48553;50.766;2.900;2023-08-17T10:34:35;11.60;;;6.70;;
60851;SDS011;48553;50.766;2.900;2023-08-17T10:37:36;14.05;;;6.47;;
60851;SDS011;48553;50.766;2.900;2023-08-17T10:40:41;13.05;;;6.68;;
60851;SDS011;48553;50.766;2.900;2023-08-17T10:44:03;13.57;;;6.25;;
60851;SDS011;48553;50.766;2.900;2023-08-17T10:47:25;12.02;;;6.63;;
60851;SDS011;48553;50.766;2.900;2023-08-17T10:50:29;17.77;;;6.68;;
60851;SDS011;48553;50.766;2.900;2023-08-17T10:53:36;15.85;;;6.32;;
60851;SDS011;48553;50.766;2.900;2023-08-17T10:56:42;21.70;;;6.47;;
60851;SDS011;48553;50.766;2.900;2023-08-17T10:59:42;11.15;;;5.30;;
60851;SDS011;48553;50.766;2.900;2023-08-17T11:02:43;12.02;;;5.10;;
60851;SDS011;48553;50.766;2.900;2023-08-17T11:08:52;13.98;;;4.50;;
60851;SDS011;48553;50.766;2.900;2023-08-17T11:11:56;12.15;;;5.10;;
60851;SDS011;48553;50.766;2.900;2023-08-17T11:15:00;13.13;;;4.60;;
60851;SDS011;48553;50.766;2.900;2023-08-17T11:18:00;9.68;;;4.22;;
60851;SDS011;48553;50.766;2.900;2023-08-17T11:21:04;8.55;;;3.70;;
60851;SDS011;48553;50.766;2.900;2023-08-17T11:24:05;7.90;;;3.60;;
60851;SDS011;48553;50.766;2.900;2023-08-17T11:27:09;7.10;;;3.72;;
60851;SDS011;48553;50.766;2.900;2023-08-17T11:30:10;8.98;;;3.78;;
60851;SDS011;48553;50.766;2.900;2023-08-17T11:33:11;8.20;;;3.60;;
60851;SDS011;48553;50.766;2.900;2023-08-17T11:36:11;9.07;;;4.03;;
60851;SDS011;48553;50.766;2.900;2023-08-17T11:39:11;8.20;;;3.53;;
60851;SDS011;48553;50.766;2.900;2023-08-17T11:42:13;8.07;;;5.10;;
60851;SDS011;48553;50.766;2.900;2023-08-17T11:45:14;6.60;;;3.55;;
60851;SDS011;48553;50.766;2.900;2023-08-17T11:48:15;6.75;;;3.45;;
60851;SDS011;48553;50.766;2.900;2023-08-17T11:51:18;6.05;;;3.55;;
60851;SDS011;48553;50.766;2.900;2023-08-17T11:54:32;6.57;;;3.60;;
60851;SDS011;48553;50.766;2.900;2023-08-17T11:57:33;8.20;;;4.10;;
60851;SDS011;48553;50.766;2.900;2023-08-17T12:00:36;8.35;;;4.80;;
60851;SDS011;48553;50.766;2.900;2023-08-17T12:03:41;9.90;;;3.58;;
60851;SDS011;48553;50.766;2.900;2023-08-17T12:06:44;6.88;;;3.72;;
60851;SDS011;48553;50.766;2.900;2023-08-17T12:09:45;7.10;;;4.45;;
60851;SDS011;48553;50.766;2.900;2023-08-17T12:12:46;7.57;;;4.38;;
60851;SDS011;48553;50.766;2.900;2023-08-17T12:15:47;6.65;;;3.92;;
60851;SDS011;48553;50.766;2.900;2023-08-17T12:18:52;7.18;;;3.90;;
60851;SDS011;48553;50.766;2.900;2023-08-17T12:21:53;7.93;;;5.22;;
60851;SDS011;48553;50.766;2.900;2023-08-17T12:24:53;7.22;;;4.72;;
60851;SDS011;48553;50.766;2.900;2023-08-17T12:27:53;7.68;;;4.78;;
60851;SDS011;48553;50.766;2.900;2023-08-17T12:30:58;10.38;;;4.32;;
60851;SDS011;48553;50.766;2.900;2023-08-17T12:33:59;9.07;;;4.38;;
60851;SDS011;48553;50.766;2.900;2023-08-17T12:37:00;7.75;;;4.90;;
60851;SDS011;48553;50.766;2.900;2023-08-17T12:40:00;6.85;;;4.70;;
60851;SDS011;48553;50.766;2.900;2023-08-17T12:43:01;9.20;;;4.88;;
60851;SDS011;48553;50.766;2.900;2023-08-17T12:46:01;9.18;;;5.93;;
60851;SDS011;48553;50.766;2.900;2023-08-17T12:49:01;7.75;;;4.80;;
60851;SDS011;48553;50.766;2.900;2023-08-17T12:52:02;8.50;;;5.38;;
60851;SDS011;48553;50.766;2.900;2023-08-17T12:55:03;7.78;;;4.70;;
60851;SDS011;48553;50.766;2.900;2023-08-17T12:58:04;8.95;;;5.28;;
60851;SDS011;48553;50.766;2.900;2023-08-17T13:01:05;10.20;;;6.30;;
60851;SDS011;48553;50.766;2.900;2023-08-17T13:04:06;8.45;;;6.00;;
60851;SDS011;48553;50.766;2.900;2023-08-17T13:07:06;8.50;;;6.40;;
60851;SDS011;48553;50.766;2.900;2023-08-17T13:10:07;10.68;;;6.72;;
60851;SDS011;48553;50.766;2.900;2023-08-17T13:13:07;9.27;;;6.07;;
60851;SDS011;48553;50.766;2.900;2023-08-17T13:16:08;9.55;;;7.20;;
60851;SDS011;48553;50.766;2.900;2023-08-17T13:19:10;11.52;;;6.90;;
60851;SDS011;48553;50.766;2.900;2023-08-17T13:22:11;10.23;;;7.88;;
60851;SDS011;48553;50.766;2.900;2023-08-17T13:25:11;12.25;;;8.35;;
60851;SDS011;48553;50.766;2.900;2023-08-17T13:28:12;12.93;;;8.77;;
60851;SDS011;48553;50.766;2.900;2023-08-17T13:31:12;9.25;;;7.40;;
60851;SDS011;48553;50.766;2.900;2023-08-17T13:34:13;14.00;;;9.95;;
60851;SDS011;48553;50.766;2.900;2023-08-17T13:37:13;11.77;;;9.32;;
60851;SDS011;48553;50.766;2.900;2023-08-17T13:40:14;14.23;;;8.32;;
60851;SDS011;48553;50.766;2.900;2023-08-17T13:43:14;10.00;;;8.02;;
60851;SDS011;48553;50.766;2.900;2023-08-17T13:46:15;12.77;;;9.88;;
60851;SDS011;48553;50.766;2.900;2023-08-17T13:49:15;13.18;;;9.43;;
60851;SDS011;48553;50.766;2.900;2023-08-17T13:52:15;13.70;;;10.68;;
60851;SDS011;48553;50.766;2.900;2023-08-17T13:55:16;11.32;;;8.35;;
60851;SDS011;48553;50.766;2.900;2023-08-17T13:58:16;11.48;;;9.27;;
60851;SDS011;48553;50.766;2.900;2023-08-17T14:01:17;12.68;;;9.55;;
60851;SDS011;48553;50.766;2.900;2023-08-17T14:04:18;10.32;;;7.20;;
60851;SDS011;48553;50.766;2.900;2023-08-17T14:07:19;18.92;;;13.23;;
60851;SDS011;48553;50.766;2.900;2023-08-17T14:10:19;13.13;;;8.30;;
60851;SDS011;48553;50.766;2.900;2023-08-17T14:13:20;11.40;;;9.13;;
60851;SDS011;48553;50.766;2.900;2023-08-17T14:16:21;14.23;;;9.93;;
60851;SDS011;48553;50.766;2.900;2023-08-17T14:19:21;15.45;;;10.00;;
60851;SDS011;48553;50.766;2.900;2023-08-17T14:22:22;13.43;;;9.32;;
60851;SDS011;48553;50.766;2.900;2023-08-17T14:25:22;13.80;;;8.95;;
60851;SDS011;48553;50.766;2.900;2023-08-17T14:28:22;18.50;;;12.80;;
60851;SDS011;48553;50.766;2.900;2023-08-17T14:31:23;14.50;;;11.40;;
60851;SDS011;48553;50.766;2.900;2023-08-17T14:34:23;14.48;;;11.00;;
60851;SDS011;48553;50.766;2.900;2023-08-17T14:37:24;17.02;;;11.75;;
60851;SDS011;48553;50.766;2.900;2023-08-17T14:40:24;16.58;;;11.07;;
60851;SDS011;48553;50.766;2.900;2023-08-17T14:43:25;13.07;;;10.27;;
60851;SDS011;48553;50.766;2.900;2023-08-17T14:46:25;17.55;;;13.07;;
60851;SDS011;48553;50.766;2.900;2023-08-17T14:49:26;14.73;;;10.15;;
60851;SDS011;48553;50.766;2.900;2023-08-17T14:52:26;16.65;;;13.30;;
60851;SDS011;48553;50.766;2.900;2023-08-17T14:55:27;14.02;;;10.15;;
60851;SDS011;48553;50.766;2.900;2023-08-17T14:58:28;13.70;;;10.52;;
60851;SDS011;48553;50.766;2.900;2023-08-17T15:01:28;17.65;;;11.57;;
60851;SDS011;48553;50.766;2.900;2023-08-17T15:04:30;12.88;;;9.93;;
60851;SDS011;48553;50.766;2.900;2023-08-17T15:07:31;14.88;;;10.35;;
60851;SDS011;48553;50.766;2.900;2023-08-17T15:10:31;17.23;;;12.00;;
60851;SDS011;48553;50.766;2.900;2023-08-17T15:13:32;21.35;;;12.55;;
60851;SDS011;48553;50.766;2.900;2023-08-17T15:16:33;16.25;;;10.82;;
60851;SDS011;48553;50.766;2.900;2023-08-17T15:19:33;16.90;;;12.93;;
60851;SDS011;48553;50.766;2.900;2023-08-17T15:22:33;18.85;;;13.43;;
60851;SDS011;48553;50.766;2.900;2023-08-17T15:25:34;21.27;;;14.82;;
60851;SDS011;48553;50.766;2.900;2023-08-17T15:28:34;20.50;;;14.40;;
60851;SDS011;48553;50.766;2.900;2023-08-17T15:31:35;18.58;;;13.20;;
60851;SDS011;48553;50.766;2.900;2023-08-17T15:34:36;21.23;;;15.43;;
60851;SDS011;48553;50.766;2.900;2023-08-17T15:37:36;29.08;;;20.00;;
60851;SDS011;48553;50.766;2.900;2023-08-17T15:40:37;18.58;;;14.02;;
60851;SDS011;48553;50.766;2.900;2023-08-17T15:43:37;22.65;;;15.65;;
60851;SDS011;48553;50.766;2.900;2023-08-17T15:46:38;25.30;;;19.13;;
60851;SDS011;48553;50.766;2.900;2023-08-17T15:49:38;18.33;;;15.23;;
60851;SDS011;48553;50.766;2.900;2023-08-17T15:52:39;18.23;;;12.60;;
60851;SDS011;48553;50.766;2.900;2023-08-17T15:55:39;15.90;;;11.00;;
60851;SDS011;48553;50.766;2.900;2023-08-17T15:58:40;18.80;;;12.07;;
60851;SDS011;48553;50.766;2.900;2023-08-17T16:01:41;15.98;;;11.13;;
60851;SDS011;48553;50.766;2.900;2023-08-17T16:04:41;13.63;;;9.57;;
60851;SDS011;48553;50.766;2.900;2023-08-17T16:07:42;16.05;;;9.43;;
60851;SDS011;48553;50.766;2.900;2023-08-17T16:10:42;13.88;;;10.68;;
60851;SDS011;48553;50.766;2.900;2023-08-17T16:13:43;13.07;;;8.90;;
60851;SDS011;48553;50.766;2.900;2023-08-17T16:16:43;14.45;;;10.52;;
60851;SDS011;48553;50.766;2.900;2023-08-17T16:19:44;17.88;;;12.27;;
60851;SDS011;48553;50.766;2.900;2023-08-17T16:22:44;17.23;;;11.10;;
60851;SDS011;48553;50.766;2.900;2023-08-17T16:25:45;12.70;;;9.73;;
60851;SDS011;48553;50.766;2.900;2023-08-17T16:28:46;14.10;;;8.82;;
60851;SDS011;48553;50.766;2.900;2023-08-17T16:31:57;16.83;;;12.23;;
60851;SDS011;48553;50.766;2.900;2023-08-17T16:35:00;15.13;;;11.03;;
60851;SDS011;48553;50.766;2.900;2023-08-17T16:38:03;13.10;;;10.43;;
60851;SDS011;48553;50.766;2.900;2023-08-17T16:41:04;15.15;;;10.60;;
60851;SDS011;48553;50.766;2.900;2023-08-17T16:44:04;16.95;;;11.80;;
60851;SDS011;48553;50.766;2.900;2023-08-17T16:47:05;18.92;;;12.43;;
60851;SDS011;48553;50.766;2.900;2023-08-17T16:50:05;17.60;;;11.35;;
60851;SDS011;48553;50.766;2.900;2023-08-17T16:53:06;16.00;;;11.93;;
60851;SDS011;48553;50.766;2.900;2023-08-17T16:56:06;14.02;;;10.95;;
60851;SDS011;48553;50.766;2.900;2023-08-17T16:59:07;14.55;;;10.75;;
60851;SDS011;48553;50.766;2.900;2023-08-17T17:02:07;14.88;;;10.38;;
60851;SDS011;48553;50.766;2.900;2023-08-17T17:05:08;15.57;;;12.55;;
60851;SDS011;48553;50.766;2.900;2023-08-17T17:08:08;21.23;;;14.07;;
60851;SDS011;48553;50.766;2.900;2023-08-17T17:11:09;23.90;;;15.18;;
60851;SDS011;48553;50.766;2.900;2023-08-17T17:14:09;20.13;;;13.93;;
60851;SDS011;48553;50.766;2.900;2023-08-17T17:17:10;21.70;;;15.60;;
60851;SDS011;48553;50.766;2.900;2023-08-17T17:20:10;18.70;;;14.20;;
60851;SDS011;48553;50.766;2.900;2023-08-17T17:23:11;23.30;;;16.52;;
60851;SDS011;48553;50.766;2.900;2023-08-17T17:26:12;21.60;;;15.50;;
60851;SDS011;48553;50.766;2.900;2023-08-17T17:29:13;21.58;;;14.55;;
60851;SDS011;48553;50.766;2.900;2023-08-17T17:32:13;19.85;;;14.95;;
60851;SDS011;48553;50.766;2.900;2023-08-17T17:35:14;21.17;;;15.43;;
60851;SDS011;48553;50.766;2.900;2023-08-17T17:38:14;22.60;;;15.80;;
60851;SDS011;48553;50.766;2.900;2023-08-17T17:41:15;23.23;;;16.27;;
60851;SDS011;48553;50.766;2.900;2023-08-17T17:44:15;23.55;;;15.98;;
60851;SDS011;48553;50.766;2.900;2023-08-17T17:47:16;24.02;;;16.30;;
60851;SDS011;48553;50.766;2.900;2023-08-17T17:50:16;23.83;;;17.13;;
60851;SDS011;48553;50.766;2.900;2023-08-17T17:53:16;26.70;;;18.23;;
60851;SDS011;48553;50.766;2.900;2023-08-17T17:56:17;28.35;;;18.60;;
60851;SDS011;48553;50.766;2.900;2023-08-17T17:59:17;26.75;;;19.02;;
60851;SDS011;48553;50.766;2.900;2023-08-17T18:02:23;28.08;;;19.63;;
60851;SDS011;48553;50.766;2.900;2023-08-17T18:05:25;26.95;;;20.10;;
60851;SDS011;48553;50.766;2.900;2023-08-17T18:08:26;30.38;;;21.08;;
60851;SDS011;48553;50.766;2.900;2023-08-17T18:11:26;28.40;;;20.02;;
60851;SDS011;48553;50.766;2.900;2023-08-17T18:14:26;30.40;;;20.95;;
60851;SDS011;48553;50.766;2.900;2023-08-17T18:17:27;30.33;;;21.40;;